Time;durP1;ratioP1;P1;durP2;ratioP2;P2;SDS_P1;SDS_P2;PMS_P1;PMS_P2;Temp;Humidity;BMP_temperature;BMP_pressure;BME280_temperature;BME280_humidity;BME280_pressure;Samples;Min_cycle;Max_cycle;Signal;HPM_P1;HPM_P2
2023/12/31 00:01:11;;;;;;;433.50;218.25;;;;;;;3.17;100.00;97640.28;4981956;28;20473;-55
2023/12/31 00:03:36;;;;;;;421.90;217.95;;;;;;;3.30;100.00;97632.84;4981323;28;20105;-54
2023/12/31 00:06:02;;;;;;;407.40;210.35;;;;;;;3.29;100.00;97628.50;4976621;28;20109;-55
2023/12/31 00:08:27;;;;;;;477.52;217.10;;;;;;;2.92;100.00;97620.91;4978574;28;20659;-55
2023/12/31 00:10:52;;;;;;;435.55;214.98;;;;;;;2.88;100.00;97622.56;4978955;28;20453;-55
2023/12/31 00:13:18;;;;;;;425.00;204.80;;;;;;;2.68;100.00;97611.84;4984604;28;20145;-56
2023/12/31 00:15:43;;;;;;;461.60;207.68;;;;;;;2.79;100.00;97617.22;4978441;28;20038;-55
2023/12/31 00:18:09;;;;;;;396.92;204.38;;;;;;;2.87;100.00;97610.56;4978082;28;20037;-56
2023/12/31 00:20:34;;;;;;;421.42;215.07;;;;;;;2.92;100.00;97611.50;4976356;28;20042;-55
2023/12/31 00:23:00;;;;;;;393.13;219.88;;;;;;;2.99;100.00;97604.81;4979555;28;20031;-56
2023/12/31 00:25:25;;;;;;;376.08;211.38;;;;;;;2.89;100.00;97605.47;4978868;28;20649;-55
2023/12/31 00:27:50;;;;;;;421.05;222.50;;;;;;;2.83;100.00;97598.47;4980589;28;20018;-55
2023/12/31 00:30:16;;;;;;;418.15;219.02;;;;;;;2.69;100.00;97603.31;4975687;28;20045;-53
2023/12/31 00:32:41;;;;;;;389.95;212.52;;;;;;;2.84;100.00;97600.22;4975997;28;20023;-54
2023/12/31 00:35:06;;;;;;;383.70;218.68;;;;;;;2.67;100.00;97595.56;4977909;28;20062;-56
2023/12/31 00:37:32;;;;;;;361.92;204.10;;;;;;;2.93;100.00;97592.69;4975442;28;20055;-54
2023/12/31 00:39:57;;;;;;;445.30;223.10;;;;;;;3.03;100.00;97591.19;4977070;28;20593;-56
2023/12/31 00:42:23;;;;;;;410.70;224.25;;;;;;;3.15;100.00;97587.13;4976402;28;20320;-54
2023/12/31 00:44:48;;;;;;;505.48;230.35;;;;;;;3.18;100.00;97582.91;4974074;28;20065;-55
2023/12/31 00:47:13;;;;;;;450.08;236.13;;;;;;;3.21;100.00;97577.84;4977388;28;20066;-57
2023/12/31 00:49:39;;;;;;;472.85;241.73;;;;;;;3.17;100.00;97570.03;4975954;28;20046;-56
2023/12/31 00:52:04;;;;;;;460.50;240.15;;;;;;;3.16;100.00;97574.31;4977656;28;20045;-55
2023/12/31 00:54:30;;;;;;;413.95;216.98;;;;;;;3.12;100.00;97565.66;4975718;28;20027;-55
2023/12/31 00:56:55;;;;;;;510.50;232.35;;;;;;;2.94;100.00;97566.16;4976580;28;20130;-57
2023/12/31 00:59:20;;;;;;;482.83;235.85;;;;;;;2.98;100.00;97559.41;4974779;28;20065;-55
2023/12/31 01:01:46;;;;;;;517.03;233.20;;;;;;;3.06;100.00;97562.09;4978199;28;20478;-53
2023/12/31 01:04:12;;;;;;;477.58;240.38;;;;;;;3.08;100.00;97563.88;4972408;28;20453;-55
2023/12/31 01:06:37;;;;;;;507.65;235.85;;;;;;;3.12;100.00;97554.53;4972128;28;20053;-55
2023/12/31 01:09:04;;;;;;;455.65;238.68;;;;;;;3.13;100.00;97558.84;4971237;28;20030;-55
2023/12/31 01:11:29;;;;;;;444.15;234.38;;;;;;;3.00;100.00;97555.13;4977067;28;20262;-55
2023/12/31 01:13:54;;;;;;;513.08;239.05;;;;;;;2.84;100.00;97552.28;4976495;28;21135;-55
2023/12/31 01:16:20;;;;;;;425.98;219.80;;;;;;;2.79;100.00;97553.91;4973672;28;20038;-53
2023/12/31 01:18:45;;;;;;;484.42;221.20;;;;;;;2.68;100.00;97551.06;4974459;28;20045;-54
2023/12/31 01:21:11;;;;;;;424.33;223.43;;;;;;;2.55;100.00;97555.09;4978698;28;20040;-57
2023/12/31 01:23:36;;;;;;;442.63;227.50;;;;;;;2.44;100.00;97554.88;4977288;28;20391;-56
2023/12/31 01:26:02;;;;;;;404.90;218.10;;;;;;;2.34;100.00;97546.09;4974786;28;20034;-56
2023/12/31 01:28:28;;;;;;;426.33;227.15;;;;;;;2.33;100.00;97534.09;4974217;28;20148;-56
2023/12/31 01:30:53;;;;;;;486.55;231.23;;;;;;;2.36;100.00;97535.88;4974813;28;20164;-55
2023/12/31 01:33:18;;;;;;;409.88;224.95;;;;;;;2.28;100.00;97535.69;4980313;28;20061;-56
2023/12/31 01:35:44;;;;;;;419.67;220.45;;;;;;;2.22;100.00;97535.53;4974373;28;20030;-55
2023/12/31 01:38:09;;;;;;;406.30;225.50;;;;;;;2.25;100.00;97520.22;4976569;28;20034;-55
2023/12/31 01:40:34;;;;;;;432.65;233.05;;;;;;;2.28;100.00;97522.00;4975904;28;20026;-55
2023/12/31 01:43:00;;;;;;;495.55;239.25;;;;;;;2.32;100.00;97514.41;4975511;28;20491;-55
2023/12/31 01:45:25;;;;;;;432.33;240.38;;;;;;;2.36;100.00;97514.44;4975153;28;20310;-56
2023/12/31 01:47:52;;;;;;;463.00;233.15;;;;;;;2.44;100.00;97508.66;4976469;28;20122;-55
2023/12/31 01:50:19;;;;;;;427.30;230.00;;;;;;;2.38;100.00;97505.97;4975658;28;20030;-55
2023/12/31 01:52:45;;;;;;;411.85;231.98;;;;;;;2.20;100.00;97498.72;4978702;28;20065;-55
2023/12/31 01:55:11;;;;;;;413.75;231.23;;;;;;;2.18;100.00;97492.69;4977129;28;20101;-55
2023/12/31 01:57:37;;;;;;;427.45;229.25;;;;;;;2.25;100.00;97493.69;4977046;28;20021;-55
2023/12/31 02:00:05;;;;;;;440.65;216.13;;;;;;;2.25;100.00;97488.56;4981072;28;20028;-56
2023/12/31 02:02:31;;;;;;;427.33;226.82;;;;;;;2.22;100.00;97494.50;4973778;28;20045;-55
2023/12/31 02:04:56;;;;;;;442.13;214.50;;;;;;;2.23;100.00;97485.97;4976896;28;20022;-56
2023/12/31 02:07:22;;;;;;;373.85;221.23;;;;;;;2.21;100.00;97488.50;4976198;28;20516;-55
2023/12/31 02:09:48;;;;;;;510.48;229.85;;;;;;;2.24;100.00;97481.69;4980380;28;20030;-56
2023/12/31 02:12:14;;;;;;;386.15;234.30;;;;;;;2.16;100.00;97474.69;4975753;28;20321;-56
2023/12/31 02:14:39;;;;;;;416.15;234.63;;;;;;;2.13;100.00;97474.66;4976722;28;20054;-54
2023/12/31 02:17:04;;;;;;;443.13;232.65;;;;;;;2.14;100.00;97463.53;4983753;28;20045;-55
2023/12/31 02:19:30;;;;;;;442.98;239.25;;;;;;;2.12;100.00;97462.66;4980408;28;20038;-55
2023/12/31 02:21:55;;;;;;;457.33;238.88;;;;;;;1.97;100.00;97464.88;4977257;28;20460;-56
2023/12/31 02:24:30;;;;;;;416.90;227.70;;;;;;;1.87;100.00;97462.09;4975057;28;20023;-55
2023/12/31 02:26:56;;;;;;;501.58;227.32;;;;;;;1.60;100.00;97452.06;4975779;28;20035;-56
2023/12/31 02:29:21;;;;;;;442.50;227.75;;;;;;;1.61;100.00;97457.25;4976366;28;20092;-56
2023/12/31 02:31:46;;;;;;;479.27;237.65;;;;;;;1.69;100.00;97459.97;4979951;28;20129;-55
2023/12/31 02:34:12;;;;;;;400.35;232.50;;;;;;;1.64;100.00;97459.84;4981929;28;20054;-56
2023/12/31 02:36:37;;;;;;;444.83;239.68;;;;;;;1.63;100.00;97453.00;4980677;28;20133;-56
2023/12/31 02:39:02;;;;;;;534.25;245.05;;;;;;;1.68;100.00;97441.16;4976691;28;20026;-55
2023/12/31 02:41:28;;;;;;;406.75;238.15;;;;;;;1.65;100.00;97433.41;4977083;28;20041;-56
2023/12/31 02:43:53;;;;;;;521.58;246.10;;;;;;;1.64;100.00;97434.22;4975442;28;20049;-56
2023/12/31 02:46:19;;;;;;;469.40;250.30;;;;;;;1.58;100.00;97430.66;4979211;28;20046;-54
2023/12/31 02:48:44;;;;;;;455.52;249.85;;;;;;;1.63;100.00;97436.78;4980887;28;20030;-56
2023/12/31 02:51:10;;;;;;;414.55;229.90;;;;;;;1.65;100.00;97425.72;4982308;28;20129;-57
2023/12/31 02:53:35;;;;;;;463.65;247.27;;;;;;;1.67;100.00;97423.19;4980952;28;20502;-55
2023/12/31 02:56:00;;;;;;;487.98;244.90;;;;;;;1.66;100.00;97411.19;4977372;28;20066;-56
2023/12/31 02:58:26;;;;;;;401.23;244.82;;;;;;;1.64;100.00;97415.41;4976836;28;20323;-56
2023/12/31 03:00:51;;;;;;;548.30;250.73;;;;;;;1.66;100.00;97419.75;4974485;28;20043;-56
2023/12/31 03:03:16;;;;;;;384.50;225.73;;;;;;;1.67;100.00;97415.50;4981299;28;20035;-56
2023/12/31 03:05:42;;;;;;;394.23;235.27;;;;;;;1.54;100.00;97411.78;4975551;28;20034;-57
2023/12/31 03:08:07;;;;;;;468.27;243.18;;;;;;;1.41;100.00;97406.34;4980083;28;20121;-54
2023/12/31 03:10:33;;;;;;;399.38;236.32;;;;;;;1.50;100.00;97404.84;4975059;28;20034;-55
2023/12/31 03:12:58;;;;;;;462.00;240.88;;;;;;;1.50;100.00;97404.84;4978587;28;20035;-55
2023/12/31 03:15:23;;;;;;;437.13;219.15;;;;;;;1.54;100.00;97397.28;4976808;28;20125;-54
2023/12/31 03:17:49;;;;;;;425.20;233.07;;;;;;;1.59;100.00;97399.06;4979290;28;20506;-56
2023/12/31 03:20:14;;;;;;;419.98;227.18;;;;;;;1.62;100.00;97392.31;4978251;28;20038;-55
2023/12/31 03:22:39;;;;;;;475.85;238.18;;;;;;;1.69;100.00;97388.19;4975889;28;20038;-54
2023/12/31 03:25:05;;;;;;;495.75;241.77;;;;;;;1.63;100.00;97390.63;4981097;28;20030;-56
2023/12/31 03:27:31;;;;;;;383.00;233.23;;;;;;;1.60;100.00;97386.25;4979193;28;20073;-55
2023/12/31 03:29:57;;;;;;;502.50;246.15;;;;;;;1.50;100.00;97380.09;4976337;28;20248;-54
2023/12/31 03:32:22;;;;;;;401.25;236.65;;;;;;;1.38;100.00;97375.53;4976475;28;20038;-55
2023/12/31 03:34:48;;;;;;;419.13;233.88;;;;;;;1.37;100.00;97381.50;4979483;28;20037;-57
2023/12/31 03:37:14;;;;;;;442.73;233.75;;;;;;;1.33;100.00;97374.56;4980418;28;20442;-55
2023/12/31 03:39:41;;;;;;;408.02;232.80;;;;;;;1.27;100.00;97366.75;4975884;28;20385;-56
2023/12/31 03:42:06;;;;;;;478.08;231.13;;;;;;;1.30;100.00;97364.25;4975436;28;20033;-55
2023/12/31 03:44:32;;;;;;;459.20;247.13;;;;;;;1.23;100.00;97360.66;4981282;28;20022;-54
2023/12/31 03:46:57;;;;;;;470.63;241.48;;;;;;;1.26;100.00;97375.28;4976268;28;20116;-56
2023/12/31 03:49:22;;;;;;;467.50;239.98;;;;;;;1.21;100.00;97364.91;4980648;28;20458;-56
2023/12/31 03:51:47;;;;;;;444.27;238.75;;;;;;;1.22;100.00;97360.66;4975632;28;20372;-55
2023/12/31 03:54:13;;;;;;;421.40;241.18;;;;;;;1.16;100.00;97359.66;4976577;28;20533;-57
2023/12/31 03:56:38;;;;;;;409.75;234.50;;;;;;;1.13;100.00;97349.34;4979510;28;20047;-55
2023/12/31 03:59:04;;;;;;;545.72;257.30;;;;;;;1.14;100.00;97337.38;4975654;28;20077;-54
2023/12/31 04:01:29;;;;;;;327.63;237.77;;;;;;;1.23;100.00;97340.16;4975680;28;20070;-56
2023/12/31 04:03:54;;;;;;;545.58;249.35;;;;;;;1.31;100.00;97325.00;4978870;28;20025;-56
2023/12/31 04:06:19;;;;;;;468.45;259.70;;;;;;;1.32;100.00;97320.72;4976629;28;20041;-56
2023/12/31 04:08:45;;;;;;;437.45;252.55;;;;;;;1.22;100.00;97305.13;4977635;28;20030;-56
2023/12/31 04:11:11;;;;;;;398.90;250.23;;;;;;;1.04;100.00;97305.59;4976672;28;20034;-57
2023/12/31 04:13:36;;;;;;;464.40;254.07;;;;;;;1.13;100.00;97302.38;4977085;28;20402;-56
2023/12/31 04:16:03;;;;;;;443.45;249.40;;;;;;;1.12;100.00;97298.94;4974047;28;20556;-56
2023/12/31 04:18:28;;;;;;;423.60;252.35;;;;;;;1.16;100.00;97295.63;4976925;28;20041;-56
2023/12/31 04:20:53;;;;;;;492.15;257.95;;;;;;;1.17;100.00;97294.81;4974915;28;20092;-56
2023/12/31 04:23:19;;;;;;;427.85;252.63;;;;;;;1.15;100.00;97291.31;4975872;28;20034;-55
2023/12/31 04:25:44;;;;;;;424.75;249.55;;;;;;;1.12;100.00;97293.81;4978130;28;20048;-56
2023/12/31 04:28:09;;;;;;;565.40;259.65;;;;;;;1.13;100.00;97298.13;4975062;28;20423;-54
2023/12/31 04:30:37;;;;;;;409.33;251.68;;;;;;;1.15;100.00;97301.56;4977531;28;20046;-55
2023/12/31 04:33:02;;;;;;;498.48;259.40;;;;;;;1.09;100.00;97296.31;4975590;28;20081;-55
2023/12/31 04:35:27;;;;;;;458.63;249.98;;;;;;;1.06;100.00;97295.38;4978056;28;20042;-55
2023/12/31 04:37:53;;;;;;;382.83;247.00;;;;;;;0.96;100.00;97289.19;4974532;28;20026;-56
2023/12/31 04:40:18;;;;;;;438.90;252.02;;;;;;;0.89;100.00;97294.16;4976663;28;20041;-55
2023/12/31 04:42:43;;;;;;;452.85;259.50;;;;;;;0.96;100.00;97286.63;4978690;28;20026;-56
2023/12/31 04:45:10;;;;;;;494.10;262.80;;;;;;;1.02;100.00;97279.06;4977466;28;20026;-55
2023/12/31 04:47:35;;;;;;;415.52;263.00;;;;;;;1.13;100.00;97282.75;4975040;28;20554;-56
2023/12/31 04:50:01;;;;;;;557.72;265.25;;;;;;;1.28;100.00;97289.03;4978381;28;20044;-54
2023/12/31 04:52:26;;;;;;;393.13;256.60;;;;;;;1.41;100.00;97278.22;4979328;28;20385;-55
2023/12/31 04:54:51;;;;;;;417.42;259.15;;;;;;;1.39;100.00;97274.78;4978358;28;20233;-56
2023/12/31 04:57:17;;;;;;;466.70;266.30;;;;;;;1.58;100.00;97272.59;4975266;28;20042;-56
2023/12/31 04:59:42;;;;;;;405.20;265.02;;;;;;;1.78;100.00;97272.16;4973476;28;20030;-57
2023/12/31 05:02:07;;;;;;;524.78;269.02;;;;;;;1.78;100.00;97272.16;4975290;28;20042;-56
2023/12/31 05:04:33;;;;;;;460.90;254.90;;;;;;;1.63;100.00;97255.59;4975592;28;20022;-54
2023/12/31 05:06:59;;;;;;;440.02;255.32;;;;;;;1.68;100.00;97256.56;4973674;28;20502;-54
2023/12/31 05:09:25;;;;;;;453.60;253.10;;;;;;;1.61;100.00;97249.59;4979234;28;20066;-54
2023/12/31 05:11:50;;;;;;;461.98;243.80;;;;;;;1.75;100.00;97252.41;4977333;28;20339;-54
2023/12/31 05:14:15;;;;;;;410.63;246.18;;;;;;;1.93;100.00;97257.03;4975766;28;20023;-56
2023/12/31 05:16:41;;;;;;;427.15;248.55;;;;;;;1.88;100.00;97248.41;4972180;28;20532;-56
2023/12/31 05:19:06;;;;;;;581.63;268.77;;;;;;;1.98;100.00;97243.44;4974814;28;20615;-55
2023/12/31 05:21:32;;;;;;;418.33;254.60;;;;;;;2.10;100.00;97243.69;4976286;28;20497;-55
2023/12/31 05:23:57;;;;;;;513.08;258.88;;;;;;;2.19;100.00;97236.16;4977009;28;20515;-55
2023/12/31 05:26:22;;;;;;;459.52;264.08;;;;;;;2.17;100.00;97235.28;4975386;28;20038;-55
2023/12/31 05:28:48;;;;;;;472.35;271.25;;;;;;;2.07;100.00;97229.09;4975203;28;20075;-55
2023/12/31 05:31:13;;;;;;;436.38;268.20;;;;;;;2.06;100.00;97227.38;4978167;28;20093;-56
2023/12/31 05:33:40;;;;;;;493.83;247.93;;;;;;;2.16;100.00;97230.94;4977555;28;20120;-56
2023/12/31 05:36:06;;;;;;;496.92;251.27;;;;;;;2.22;100.00;97227.63;4970915;28;20510;-56
2023/12/31 05:38:31;;;;;;;401.38;237.23;;;;;;;2.16;100.00;97218.13;4973645;28;20042;-54
2023/12/31 05:40:56;;;;;;;456.65;239.18;;;;;;;1.88;100.00;97216.75;4974152;28;20415;-55
2023/12/31 05:43:22;;;;;;;414.77;246.27;;;;;;;1.92;100.00;97213.41;4972867;28;20080;-56
2023/12/31 05:45:47;;;;;;;443.83;250.00;;;;;;;1.98;100.00;97197.28;4977361;28;20027;-55
2023/12/31 05:48:13;;;;;;;516.92;239.75;;;;;;;2.03;100.00;97187.97;4972327;28;20306;-54
2023/12/31 05:50:38;;;;;;;441.70;249.45;;;;;;;1.90;100.00;97190.31;4973456;28;20045;-56
2023/12/31 05:53:04;;;;;;;495.58;249.95;;;;;;;1.92;100.00;97188.66;4974273;28;20120;-55
2023/12/31 05:55:29;;;;;;;460.17;252.50;;;;;;;1.91;100.00;97178.34;4972072;28;20039;-54
2023/12/31 05:57:55;;;;;;;431.35;256.30;;;;;;;1.99;100.00;97184.50;4980059;28;20037;-55
2023/12/31 06:00:22;;;;;;;418.35;248.13;;;;;;;1.96;100.00;97184.44;4977808;28;20019;-55
2023/12/31 06:02:47;;;;;;;476.35;254.55;;;;;;;1.89;100.00;97180.88;4978201;28;20029;-56
2023/12/31 06:05:12;;;;;;;536.10;256.52;;;;;;;1.83;100.00;97180.78;4972434;28;20018;-56
2023/12/31 06:07:38;;;;;;;445.00;251.13;;;;;;;1.89;100.00;97177.47;4973674;28;20366;-54
2023/12/31 06:10:04;;;;;;;520.08;249.68;;;;;;;2.24;100.00;97169.53;4971110;28;20073;-56
2023/12/31 06:12:31;;;;;;;447.15;264.92;;;;;;;2.33;100.00;97173.94;4975622;28;20031;-55
2023/12/31 06:14:59;;;;;;;415.23;245.30;;;;;;;2.31;100.00;97165.34;4972624;28;20153;-56
2023/12/31 06:17:25;;;;;;;452.77;258.58;;;;;;;2.25;100.00;97167.81;4978154;28;20069;-54
2023/12/31 06:19:50;;;;;;;458.73;258.75;;;;;;;2.34;100.00;97168.81;4977138;28;20035;-56
2023/12/31 06:22:16;;;;;;;550.05;260.63;;;;;;;2.38;100.00;97163.75;4973199;28;20137;-56
2023/12/31 06:24:41;;;;;;;425.83;262.35;;;;;;;2.23;100.00;97160.09;4970572;28;20038;-55
2023/12/31 06:27:07;;;;;;;542.17;273.98;;;;;;;2.16;100.00;97155.69;4974790;28;20039;-54
2023/12/31 06:29:32;;;;;;;468.13;279.65;;;;;;;2.18;100.00;97159.13;4975884;28;20080;-56
2023/12/31 06:31:58;;;;;;;432.00;266.27;;;;;;;2.32;100.00;97157.69;4973583;28;20039;-55
2023/12/31 06:34:23;;;;;;;418.55;253.75;;;;;;;2.57;100.00;97154.63;4974216;28;20402;-55
2023/12/31 06:36:48;;;;;;;483.75;269.08;;;;;;;2.90;100.00;97160.22;4972732;28;20636;-56
2023/12/31 06:39:14;;;;;;;482.65;264.55;;;;;;;2.87;100.00;97155.91;4977131;28;20221;-54
2023/12/31 06:41:39;;;;;;;456.05;262.02;;;;;;;2.95;100.00;97150.88;4975994;28;20130;-55
2023/12/31 06:44:04;;;;;;;579.30;273.17;;;;;;;2.82;100.00;97142.16;4978217;28;20015;-55
2023/12/31 06:46:30;;;;;;;432.60;263.83;;;;;;;3.03;100.00;97130.41;4975609;28;20053;-55
2023/12/31 06:48:56;;;;;;;406.40;248.85;;;;;;;3.13;100.00;97133.13;4974937;28;20021;-54
2023/12/31 06:51:21;;;;;;;432.65;250.95;;;;;;;3.31;100.00;97123.06;4979657;28;20038;-53
2023/12/31 06:53:46;;;;;;;507.17;364.80;;;;;;;3.64;100.00;97119.13;4978666;28;20474;-55
2023/12/31 06:56:12;;;;;;;529.95;259.40;;;;;;;3.87;100.00;97116.75;4977469;28;20042;-56
2023/12/31 06:58:38;;;;;;;447.42;267.25;;;;;;;3.93;100.00;97120.25;4980831;28;20026;-54
2023/12/31 07:01:04;;;;;;;523.38;287.55;;;;;;;3.88;100.00;97122.78;4975654;28;20050;-55
2023/12/31 07:03:29;;;;;;;426.02;245.85;;;;;;;4.05;100.00;97128.09;4980292;28;20030;-55
2023/12/31 07:05:55;;;;;;;479.52;335.73;;;;;;;4.10;100.00;97128.13;4979236;28;20035;-55
2023/12/31 07:08:20;;;;;;;445.17;260.92;;;;;;;4.15;100.00;97127.31;4977873;28;20026;-56
2023/12/31 07:10:46;;;;;;;464.75;262.63;;;;;;;4.07;100.00;97136.66;4979113;28;20034;-54
2023/12/31 07:13:11;;;;;;;525.50;255.05;;;;;;;4.29;100.00;97132.56;4974567;28;20031;-56
2023/12/31 07:15:37;;;;;;;452.65;249.07;;;;;;;4.30;100.00;97126.56;4973285;28;20035;-56
2023/12/31 07:18:03;;;;;;;442.98;250.68;;;;;;;4.25;100.00;97125.69;4982842;28;20069;-55
2023/12/31 07:20:28;;;;;;;416.10;251.93;;;;;;;4.40;100.00;97129.22;4976945;28;20038;-55
2023/12/31 07:22:53;;;;;;;438.77;241.10;;;;;;;4.45;100.00;97124.09;4980449;28;20053;-55
2023/12/31 07:25:28;;;;;;;547.50;271.67;;;;;;;4.41;100.00;97116.34;4975745;28;20712;-55
2023/12/31 07:27:53;;;;;;;471.52;265.08;;;;;;;4.39;100.00;97110.31;4980604;28;20361;-55
2023/12/31 07:30:19;;;;;;;561.42;264.35;;;;;;;4.57;100.00;97103.59;4979194;28;20038;-53
2023/12/31 07:32:44;;;;;;;446.30;255.55;;;;;;;4.54;100.00;97103.56;4977590;28;20259;-54
2023/12/31 07:35:10;;;;;;;657.05;417.90;;;;;;;4.56;100.00;97099.28;4975627;28;20022;-55
2023/12/31 07:37:38;;;;;;;535.47;371.80;;;;;;;4.64;100.00;97097.59;4978917;28;20096;-56
2023/12/31 07:40:10;;;;;;;452.63;250.30;;;;;;;4.78;100.00;97092.53;4977369;28;20077;-56
2023/12/31 07:42:37;;;;;;;;;;;;;;;4.72;100.00;97092.53;4977119;28;20530;-56
2023/12/31 07:45:04;;;;;;;439.80;254.32;;;;;;;4.77;100.00;97095.09;4974765;28;20884;-57
2023/12/31 07:47:30;;;;;;;400.20;239.02;;;;;;;4.85;100.00;97095.13;4979991;28;20430;-56
2023/12/31 07:49:56;;;;;;;428.63;244.88;;;;;;;4.97;100.00;97087.47;4978438;28;20022;-57
2023/12/31 07:52:21;;;;;;;437.08;249.95;;;;;;;5.07;100.00;97096.97;4979873;28;20222;-57
2023/12/31 07:54:47;;;;;;;538.15;362.00;;;;;;;5.10;100.00;97090.97;4979931;28;20039;-55
2023/12/31 07:57:12;;;;;;;564.53;272.02;;;;;;;5.16;100.00;97100.44;4976959;28;20262;-53
2023/12/31 07:59:38;;;;;;;516.38;358.45;;;;;;;5.18;100.00;97096.16;4975137;28;20050;-56
2023/12/31 08:02:04;;;;;;;513.38;355.92;;;;;;;5.16;100.00;97100.44;4975754;28;20046;-55
2023/12/31 08:04:29;;;;;;;480.95;315.52;;;;;;;5.17;100.00;97104.75;4978239;28;20446;-55
2023/12/31 08:06:54;;;;;;;453.98;271.38;;;;;;;5.17;100.00;97091.84;4978629;28;20062;-56
2023/12/31 08:09:20;;;;;;;634.67;267.58;;;;;;;5.31;100.00;97087.59;4976310;28;20019;-57
2023/12/31 08:11:45;;;;;;;450.48;260.38;;;;;;;5.39;100.00;97094.50;4972867;28;20754;-54
2023/12/31 08:14:11;;;;;;;608.65;291.80;;;;;;;5.63;100.00;97092.81;4978028;28;20027;-56
2023/12/31 08:16:36;;;;;;;489.58;273.50;;;;;;;5.66;100.00;97092.84;4978262;28;20698;-57
2023/12/31 08:19:03;;;;;;;435.27;246.93;;;;;;;5.88;100.00;97108.34;4974189;28;20462;-56
2023/12/31 08:21:29;;;;;;;427.50;238.18;;;;;;;5.99;100.00;97094.59;4977529;28;20037;-56
2023/12/31 08:23:54;;;;;;;473.48;236.77;;;;;;;6.08;100.00;97093.78;4977149;28;20019;-55
2023/12/31 08:26:19;;;;;;;587.10;244.10;;;;;;;6.10;100.00;97088.63;4975025;28;20056;-53
2023/12/31 08:28:45;;;;;;;459.17;240.00;;;;;;;6.18;100.00;97086.91;4975458;28;20489;-56
2023/12/31 08:31:14;;;;;;;603.03;270.65;;;;;;;6.27;100.00;97078.28;4975457;28;20042;-58
2023/12/31 08:33:39;;;;;;;469.65;245.45;;;;;;;6.30;100.00;97085.16;4976313;28;20217;-56
2023/12/31 08:36:05;;;;;;;433.52;230.95;;;;;;;6.25;100.00;97088.63;4975809;28;20117;-57
2023/12/31 08:38:30;;;;;;;477.88;252.80;;;;;;;6.31;100.00;97082.56;4972861;28;20096;-57
2023/12/31 08:40:55;;;;;;;472.38;262.77;;;;;;;6.39;100.00;97069.66;4976685;28;20046;-54
2023/12/31 08:43:21;;;;;;;641.53;378.27;;;;;;;6.60;100.00;97075.63;4977049;28;20084;-54
2023/12/31 08:45:46;;;;;;;534.90;291.02;;;;;;;6.64;100.00;97073.06;4976243;28;20034;-55
2023/12/31 08:48:12;;;;;;;565.85;254.63;;;;;;;7.06;100.00;97064.31;4974981;28;20068;-55
2023/12/31 08:50:37;;;;;;;480.67;245.15;;;;;;;7.16;100.00;97075.44;4976474;28;20054;-56
2023/12/31 08:53:03;;;;;;;486.15;247.43;;;;;;;6.89;100.00;97072.13;4977399;28;20018;-56
2023/12/31 08:55:28;;;;;;;468.67;238.68;;;;;;;7.25;100.00;97061.63;4973724;28;20456;-55
2023/12/31 08:57:53;;;;;;;440.38;283.30;;;;;;;7.21;100.00;97071.16;4972670;28;20348;-55
2023/12/31 09:00:19;;;;;;;622.50;266.25;;;;;;;7.08;100.00;97077.22;4975185;28;20072;-55
2023/12/31 09:02:45;;;;;;;468.80;236.52;;;;;;;7.24;100.00;97076.28;4971108;28;20105;-56
2023/12/31 09:05:11;;;;;;;512.17;239.77;;;;;;;7.27;100.00;97081.44;4980355;28;20027;-56
2023/12/31 09:07:36;;;;;;;461.67;270.42;;;;;;;7.07;100.00;97084.13;4981244;28;20022;-56
2023/12/31 09:10:06;;;;;;;382.67;230.95;;;;;;;7.10;100.00;97084.13;4982068;28;20036;-55
2023/12/31 09:12:32;;;;;;;405.73;230.60;;;;;;;7.07;100.00;97084.13;4979939;28;20038;-55
2023/12/31 09:14:57;;;;;;;459.33;254.65;;;;;;;6.93;100.00;97085.88;4973836;28;20033;-56
2023/12/31 09:17:23;;;;;;;528.03;260.23;;;;;;;7.03;100.00;97085.00;4975706;28;20129;-56
2023/12/31 09:19:48;;;;;;;526.33;391.88;;;;;;;6.87;100.00;97092.78;4978828;28;20030;-55
2023/12/31 09:22:14;;;;;;;601.05;264.55;;;;;;;6.80;100.00;97098.88;4977617;28;20080;-55
2023/12/31 09:24:39;;;;;;;412.77;240.95;;;;;;;6.87;100.00;97095.38;4978359;28;20027;-56
2023/12/31 09:27:07;;;;;;;425.55;248.50;;;;;;;7.05;100.00;97103.94;4975977;28;20054;-55
2023/12/31 09:29:35;;;;;;;461.55;252.55;;;;;;;7.09;100.00;97087.53;4977631;28;20054;-55
2023/12/31 09:32:01;;;;;;;451.15;273.98;;;;;;;7.05;100.00;97103.09;4980549;28;20043;-56
2023/12/31 09:34:26;;;;;;;569.83;270.52;;;;;;;7.16;100.00;97099.59;4977051;28;20026;-54
2023/12/31 09:36:52;;;;;;;492.40;257.55;;;;;;;7.24;100.00;97101.31;4977942;28;20489;-57
2023/12/31 09:39:17;;;;;;;633.10;304.08;;;;;;;7.26;100.00;97094.38;4979617;28;20035;-55
2023/12/31 09:41:47;;;;;;;436.23;251.50;;;;;;;7.42;100.00;97090.84;4978586;28;20034;-55
2023/12/31 09:44:19;;;;;;;514.30;256.92;;;;;;;7.51;100.00;97079.59;4977392;28;20039;-55
2023/12/31 09:46:58;;;;;;;472.10;248.77;;;;;;;7.59;100.00;97081.28;4978274;28;20460;-56
2023/12/31 09:49:23;;;;;;;652.20;268.73;;;;;;;7.61;100.00;97087.31;4973409;28;20022;-56
2023/12/31 09:51:50;;;;;;;467.00;253.80;;;;;;;7.58;100.00;97075.25;4979173;28;20129;-56
2023/12/31 09:54:17;;;;;;;564.92;293.15;;;;;;;7.67;100.00;97064.84;4979747;28;20038;-54
2023/12/31 09:56:44;;;;;;;477.40;265.08;;;;;;;7.66;100.00;97067.44;4977363;28;20121;-56
2023/12/31 09:59:11;;;;;;;459.80;288.85;;;;;;;7.82;100.00;97057.81;4978457;28;20293;-56
2023/12/31 10:01:38;;;;;;;445.92;250.85;;;;;;;7.84;100.00;97045.75;4975944;28;20496;-56
2023/12/31 10:04:04;;;;;;;491.10;290.02;;;;;;;7.84;100.00;97022.44;4975921;28;20042;-56
2023/12/31 10:06:31;;;;;;;502.30;367.58;;;;;;;7.73;100.00;97021.66;4977702;28;20041;-56
2023/12/31 10:08:57;;;;;;;517.10;341.45;;;;;;;7.76;100.00;97034.59;4980816;28;20116;-57
2023/12/31 10:11:22;;;;;;;573.78;297.77;;;;;;;8.12;100.00;97036.91;4976291;28;20057;-56
2023/12/31 10:13:48;;;;;;;466.27;265.45;;;;;;;8.31;100.00;97042.75;4980966;28;20137;-57
2023/12/31 10:16:14;;;;;;;604.33;378.48;;;;;;;8.33;100.00;97035.81;4974378;28;20071;-58
2023/12/31 10:18:40;;;;;;;493.65;271.38;;;;;;;8.25;100.00;97033.31;4981055;28;20023;-56
2023/12/31 10:21:08;;;;;;;444.45;278.13;;;;;;;8.24;100.00;97023.81;4974222;28;20046;-58
2023/12/31 10:23:34;;;;;;;565.17;385.38;;;;;;;8.30;100.00;97018.59;4978805;28;20540;-56
2023/12/31 10:25:59;;;;;;;520.20;395.92;;;;;;;8.49;100.00;97013.19;4983678;28;20038;-59
2023/12/31 10:28:27;;;;;;;661.67;392.67;;;;;;;8.40;100.00;97002.94;4985156;28;20029;-57
2023/12/31 10:30:53;;;;;;;538.38;309.55;;;;;;;8.50;100.00;96998.53;4983428;28;20039;-57
2023/12/31 10:33:26;;;;;;;652.55;362.17;;;;;;;8.69;100.00;97009.56;4978310;28;20029;-58
2023/12/31 10:36:02;;;;;;;522.25;287.73;;;;;;;8.80;100.00;96999.91;4977523;28;20046;-56
2023/12/31 10:38:28;;;;;;;607.55;293.35;;;;;;;9.11;100.00;96990.91;4980837;28;20084;-57
2023/12/31 10:41:04;;;;;;;532.10;287.88;;;;;;;9.43;100.00;96997.34;4982187;28;20043;-54
2023/12/31 10:43:29;;;;;;;593.97;290.08;;;;;;;9.04;100.00;96995.31;4980063;28;20022;-57
2023/12/31 10:45:56;;;;;;;500.02;291.40;;;;;;;9.17;100.00;96998.59;4979839;28;20042;-55
2023/12/31 10:48:23;;;;;;;594.47;286.70;;;;;;;9.47;100.00;96982.59;4983492;28;20088;-55
2023/12/31 10:50:52;;;;;;;542.65;352.70;;;;;;;8.79;100.00;96972.28;4981793;28;20046;-57
2023/12/31 10:53:21;;;;;;;531.85;269.85;;;;;;;9.29;100.00;96973.34;4979413;28;20399;-56
2023/12/31 10:55:47;;;;;;;544.17;286.30;;;;;;;9.09;100.00;96979.66;4980222;28;20047;-56